createdAt,value
2023-02-18T00:01:33.580Z,94.50
2023-02-18T00:04:04.384Z,94.50
2023-02-18T00:06:34.627Z,94.20
2023-02-18T00:09:04.199Z,94.10
2023-02-18T00:11:34.381Z,94.00
2023-02-18T00:14:03.534Z,94.30
2023-02-18T00:16:31.964Z,94.10
2023-02-18T00:19:01.764Z,94.00
2023-02-18T00:21:29.329Z,94.10
2023-02-18T00:23:56.815Z,94.30
2023-02-18T00:26:24.037Z,94.30
2023-02-18T00:28:52.012Z,94.10
2023-02-18T00:31:27.138Z,94.70
2023-02-18T00:33:54.934Z,94.80
2023-02-18T00:36:23.454Z,94.50
2023-02-18T00:38:53.862Z,94.20
2023-02-18T00:41:23.501Z,94.00
2023-02-18T00:43:51.187Z,93.80
2023-02-18T00:46:20.523Z,93.90
2023-02-18T00:48:47.864Z,93.60
2023-02-18T00:51:15.418Z,93.50
2023-02-18T00:53:42.673Z,93.60
2023-02-18T00:56:10.499Z,93.60
2023-02-18T00:58:38.460Z,92.90
2023-02-18T01:01:07.765Z,93.20
2023-02-18T01:03:36.351Z,93.10
2023-02-18T01:06:04.772Z,92.80
2023-02-18T01:08:33.953Z,92.90
2023-02-18T01:11:01.568Z,92.60
2023-02-18T01:13:29.694Z,92.30
2023-02-18T01:15:57.502Z,92.60
2023-02-18T01:18:26.744Z,92.50
2023-02-18T01:20:54.432Z,92.50
2023-02-18T01:23:22.675Z,92.50
2023-02-18T01:25:50.045Z,92.50
2023-02-18T01:28:18.370Z,92.50
2023-02-18T01:30:45.665Z,92.30
2023-02-18T01:33:12.906Z,92.10
2023-02-18T01:35:41.196Z,92.30
2023-02-18T01:38:08.851Z,92.20
2023-02-18T01:40:37.406Z,92.00
2023-02-18T01:43:04.935Z,92.10
2023-02-18T01:45:37.912Z,91.90
2023-02-18T01:48:19.974Z,91.80
2023-02-18T01:51:13.477Z,91.80
2023-02-18T01:53:53.009Z,91.60
2023-02-18T01:56:31.979Z,91.90
2023-02-18T01:59:03.314Z,91.80
2023-02-18T02:01:32.202Z,91.60
2023-02-18T02:03:59.425Z,91.70
2023-02-18T02:06:27.028Z,91.80
2023-02-18T02:08:58.676Z,91.90
2023-02-18T02:11:40.879Z,91.90
2023-02-18T02:14:17.397Z,91.80
2023-02-18T02:17:04.973Z,91.60
2023-02-18T02:20:05.784Z,91.50
2023-02-18T02:23:03.890Z,91.60
2023-02-18T02:25:49.257Z,91.70
2023-02-18T02:28:34.527Z,92.00
2023-02-18T02:31:38.409Z,92.00
2023-02-18T02:34:36.670Z,92.20
2023-02-18T02:37:26.249Z,92.50
2023-02-18T02:40:30.193Z,93.00
2023-02-18T02:43:12.001Z,92.80
2023-02-18T02:46:08.172Z,92.90
2023-02-18T02:48:49.236Z,93.30
2023-02-18T02:51:33.152Z,93.60
2023-02-18T02:54:29.918Z,94.10
2023-02-18T02:57:29.464Z,94.50
2023-02-18T03:00:12.681Z,94.80
2023-02-18T03:02:52.882Z,95.20
2023-02-18T03:05:50.494Z,95.00
2023-02-18T03:08:27.323Z,94.80
2023-02-18T03:11:00.040Z,94.70
2023-02-18T03:13:51.399Z,94.70
2023-02-18T03:16:50.494Z,94.70
2023-02-18T03:19:26.269Z,95.10
2023-02-18T03:22:12.856Z,94.50
2023-02-18T03:24:44.363Z,94.20
2023-02-18T03:27:26.357Z,93.80
2023-02-18T03:30:00.480Z,93.60
2023-02-18T03:32:29.656Z,93.70
2023-02-18T03:35:03.099Z,93.70
2023-02-18T03:37:38.288Z,93.30
2023-02-18T03:40:06.786Z,93.70
2023-02-18T03:42:33.933Z,93.50
2023-02-18T03:45:01.411Z,93.60
2023-02-18T03:47:30.621Z,93.10
2023-02-18T03:49:57.805Z,93.00
2023-02-18T03:52:25.253Z,93.00
2023-02-18T03:54:52.538Z,93.00
2023-02-18T03:57:19.816Z,92.50
2023-02-18T03:59:47.046Z,92.00
2023-02-18T04:02:14.347Z,92.00
2023-02-18T04:04:41.569Z,92.20
2023-02-18T04:07:08.996Z,92.20
2023-02-18T04:09:36.193Z,92.10
2023-02-18T04:12:03.540Z,92.00
2023-02-18T04:14:30.748Z,91.90
2023-02-18T04:16:57.970Z,92.00
2023-02-18T04:19:25.273Z,91.80
2023-02-18T04:21:52.573Z,91.80
2023-02-18T04:24:19.766Z,91.70
2023-02-18T04:26:47.100Z,91.90
2023-02-18T04:29:14.276Z,91.90
2023-02-18T04:31:41.750Z,91.90
2023-02-18T04:34:09.061Z,92.20
2023-02-18T04:36:36.268Z,92.40
2023-02-18T04:39:04.303Z,92.30
2023-02-18T04:41:31.561Z,92.60
2023-02-18T04:43:59.714Z,93.00
2023-02-18T04:46:26.922Z,93.10
2023-02-18T04:48:54.088Z,93.40
2023-02-18T04:51:21.441Z,93.70
2023-02-18T04:53:48.692Z,93.70
2023-02-18T04:56:16.284Z,94.10
2023-02-18T04:58:43.592Z,93.80
2023-02-18T05:01:10.900Z,93.90
2023-02-18T05:03:38.150Z,94.20
2023-02-18T05:06:05.817Z,94.50
2023-02-18T05:08:33.279Z,94.50
2023-02-18T05:11:00.740Z,94.50
2023-02-18T05:13:27.945Z,94.60
2023-02-18T05:15:55.163Z,95.10
2023-02-18T05:18:22.435Z,94.90
2023-02-18T05:20:49.593Z,95.00
2023-02-18T05:23:16.945Z,95.10
2023-02-18T05:25:44.092Z,95.00
2023-02-18T05:28:11.337Z,94.90
2023-02-18T05:30:39.373Z,94.70
2023-02-18T05:33:06.625Z,94.70
2023-02-18T05:35:35.373Z,94.70
2023-02-18T05:38:02.500Z,94.80
2023-02-18T05:40:30.039Z,94.80
2023-02-18T05:42:57.258Z,95.00
2023-02-18T05:45:24.689Z,95.00
2023-02-18T05:47:51.968Z,95.00
2023-02-18T05:50:19.212Z,95.10
2023-02-18T05:52:46.537Z,95.00
2023-02-18T05:55:13.836Z,94.90
2023-02-18T05:57:41.332Z,94.70
2023-02-18T06:00:11.974Z,94.50
2023-02-18T06:02:39.544Z,94.50
2023-02-18T06:05:07.525Z,94.00
2023-02-18T06:07:34.805Z,93.80
2023-02-18T06:10:02.481Z,93.30
2023-02-18T06:12:30.775Z,93.10
2023-02-18T06:14:57.988Z,92.90
2023-02-18T06:17:25.224Z,92.80
2023-02-18T06:19:52.395Z,92.80
2023-02-18T06:22:19.817Z,92.70
2023-02-18T06:24:48.974Z,92.50
2023-02-18T06:27:16.301Z,92.40
2023-02-18T06:29:43.577Z,92.30
2023-02-18T06:32:10.874Z,92.30
2023-02-18T06:34:38.350Z,92.50
2023-02-18T06:37:05.609Z,92.30
2023-02-18T06:39:32.728Z,92.30
2023-02-18T06:42:00.510Z,92.30
2023-02-18T06:44:27.934Z,92.50
2023-02-18T06:46:55.386Z,92.50
2023-02-18T06:49:22.562Z,92.60
2023-02-18T06:51:49.756Z,92.60
2023-02-18T06:54:16.921Z,92.70
2023-02-18T06:56:44.213Z,92.50
2023-02-18T06:59:11.796Z,92.60
2023-02-18T07:01:38.940Z,92.60
2023-02-18T07:04:06.180Z,92.60
2023-02-18T07:06:33.608Z,92.60
2023-02-18T07:09:00.980Z,92.60
2023-02-18T07:11:28.200Z,92.60
2023-02-18T07:13:55.523Z,92.60
2023-02-18T07:16:22.915Z,92.40
2023-02-18T07:18:50.290Z,92.50
2023-02-18T07:21:17.741Z,92.60
2023-02-18T07:23:45.016Z,92.50
2023-02-18T07:26:13.968Z,92.50
2023-02-18T07:28:42.017Z,93.00
2023-02-18T07:31:09.915Z,92.50
2023-02-18T07:33:37.194Z,92.60
2023-02-18T07:36:07.138Z,93.00
2023-02-18T07:38:34.723Z,92.80
2023-02-18T07:41:02.167Z,92.90
2023-02-18T07:43:29.516Z,92.60
2023-02-18T07:45:56.746Z,92.60
2023-02-18T07:48:23.920Z,92.50
2023-02-18T07:50:53.954Z,92.10
2023-02-18T07:53:21.145Z,91.90
2023-02-18T07:55:51.250Z,91.90
2023-02-18T07:58:24.799Z,91.90
2023-02-18T08:00:56.298Z,91.80
2023-02-18T08:03:26.442Z,91.90
2023-02-18T08:05:54.490Z,92.00
2023-02-18T08:08:24.424Z,92.10
2023-02-18T08:10:52.429Z,92.00
2023-02-18T08:13:19.693Z,91.90
2023-02-18T08:15:47.316Z,92.00
2023-02-18T08:18:22.883Z,92.40
2023-02-18T08:20:51.914Z,91.80
2023-02-18T08:23:20.779Z,91.80
2023-02-18T08:25:50.750Z,91.90
2023-02-18T08:28:19.228Z,91.90
2023-02-18T08:30:47.460Z,92.00
2023-02-18T08:33:15.193Z,91.60
2023-02-18T08:35:42.588Z,91.80
2023-02-18T08:38:09.894Z,92.20
2023-02-18T08:40:37.222Z,92.40
2023-02-18T08:43:07.263Z,91.80
2023-02-18T08:45:36.092Z,91.80
2023-02-18T08:48:17.446Z,91.80
2023-02-18T08:50:48.749Z,91.50
2023-02-18T08:53:16.963Z,91.60
2023-02-18T08:55:44.615Z,91.50
2023-02-18T08:58:12.592Z,91.70
2023-02-18T09:00:41.441Z,91.80
2023-02-18T09:03:10.993Z,91.70
2023-02-18T09:05:40.155Z,91.50
2023-02-18T09:08:07.537Z,91.80
2023-02-18T09:10:35.184Z,91.60
2023-02-18T09:13:02.578Z,91.80
2023-02-18T09:15:29.885Z,91.80
2023-02-18T09:17:57.244Z,92.00
2023-02-18T09:20:24.493Z,92.00
2023-02-18T09:22:52.908Z,91.90
2023-02-18T09:25:20.112Z,92.10
2023-02-18T09:27:47.352Z,92.20
2023-02-18T09:30:14.901Z,92.30
2023-02-18T09:32:42.260Z,92.20
2023-02-18T09:35:10.879Z,92.20
2023-02-18T09:37:39.965Z,92.50
2023-02-18T09:40:07.904Z,92.70
2023-02-18T09:42:35.586Z,93.00
2023-02-18T09:45:07.841Z,92.90
2023-02-18T09:47:41.535Z,92.90
2023-02-18T09:50:30.668Z,92.90
2023-02-18T09:53:03.134Z,93.00
2023-02-18T09:55:36.497Z,92.90
2023-02-18T09:58:08.388Z,92.70
2023-02-18T10:00:39.941Z,92.80
2023-02-18T10:03:25.228Z,92.70
2023-02-18T10:06:04.733Z,92.90
2023-02-18T10:08:42.631Z,92.90
2023-02-18T10:11:37.174Z,92.80
2023-02-18T10:14:11.128Z,92.80
2023-02-18T10:16:38.672Z,92.50
2023-02-18T10:19:22.255Z,92.40
2023-02-18T10:21:51.361Z,92.40
2023-02-18T10:24:41.876Z,92.50
2023-02-18T10:27:09.616Z,92.40
2023-02-18T10:29:37.056Z,92.40
2023-02-18T10:32:20.235Z,92.30
2023-02-18T10:35:30.653Z,91.80
2023-02-18T10:38:08.454Z,91.30
2023-02-18T10:41:05.820Z,91.50
2023-02-18T10:43:36.133Z,91.40
2023-02-18T10:46:38.467Z,91.30
2023-02-18T10:49:32.058Z,91.10
2023-02-18T10:52:01.803Z,91.10
2023-02-18T10:54:59.242Z,91.20
2023-02-18T10:57:27.008Z,91.30
2023-02-18T10:59:57.642Z,91.30
2023-02-18T11:02:30.831Z,91.20
2023-02-18T11:05:02.002Z,91.20
2023-02-18T11:07:34.676Z,91.60
2023-02-18T11:10:16.986Z,91.60
2023-02-18T11:12:51.027Z,92.10
2023-02-18T11:15:24.530Z,92.20
2023-02-18T11:17:55.557Z,92.50
2023-02-18T11:20:30.930Z,92.40
2023-02-18T11:23:18.395Z,92.40
2023-02-18T11:26:00.860Z,92.50
2023-02-18T11:28:36.366Z,92.40
2023-02-18T11:31:05.392Z,92.40
2023-02-18T11:33:50.017Z,92.00
2023-02-18T11:36:26.141Z,91.80
2023-02-18T11:39:14.936Z,91.70
2023-02-18T11:41:48.675Z,91.80
2023-02-18T11:44:43.339Z,91.50
2023-02-18T11:47:13.528Z,91.40
2023-02-18T11:49:43.635Z,91.20
2023-02-18T11:52:18.734Z,91.10
2023-02-18T11:55:28.661Z,91.20
2023-02-18T11:58:01.401Z,90.60
2023-02-18T12:00:47.119Z,90.40
2023-02-18T12:03:39.304Z,90.50
2023-02-18T12:06:33.491Z,90.50
2023-02-18T12:09:06.653Z,90.50
2023-02-18T12:11:58.622Z,90.30
2023-02-18T12:14:27.568Z,90.00
2023-02-18T12:17:17.064Z,90.30
2023-02-18T12:20:12.481Z,90.30
2023-02-18T12:22:50.341Z,90.30
2023-02-18T12:25:39.968Z,90.30
2023-02-18T12:28:13.288Z,90.20
2023-02-18T12:30:40.575Z,90.20
2023-02-18T12:33:26.625Z,90.20
2023-02-18T12:36:08.990Z,90.10
2023-02-18T12:39:03.927Z,90.00
2023-02-18T12:41:49.115Z,89.70
2023-02-18T12:44:22.115Z,89.10
2023-02-18T12:47:20.130Z,89.10
2023-02-18T12:50:16.512Z,88.80
2023-02-18T12:53:18.754Z,88.40
2023-02-18T12:56:18.231Z,87.90
2023-02-18T12:59:36.321Z,88.40
2023-02-18T13:02:24.986Z,88.30
2023-02-18T13:05:01.038Z,89.00
2023-02-18T13:07:48.584Z,88.30
2023-02-18T13:10:38.162Z,86.30
2023-02-18T13:13:16.412Z,86.60
2023-02-18T13:15:57.036Z,86.90
2023-02-18T13:18:44.852Z,85.20
2023-02-18T13:21:15.268Z,81.70
2023-02-18T13:23:51.377Z,78.60
2023-02-18T13:26:20.183Z,72.90
2023-02-18T13:28:52.975Z,72.30
2023-02-18T13:31:36.480Z,70.10
2023-02-18T13:34:27.198Z,70.80
2023-02-18T13:37:04.192Z,69.50
2023-02-18T13:39:33.186Z,64.90
2023-02-18T13:42:32.654Z,59.00
2023-02-18T13:45:03.693Z,56.00
2023-02-18T13:47:45.507Z,54.80
2023-02-18T13:50:28.151Z,53.70
2023-02-18T13:53:07.666Z,54.70
2023-02-18T13:55:54.948Z,56.40
2023-02-18T13:58:53.096Z,55.00
2023-02-18T14:01:34.204Z,54.30
2023-02-18T14:04:02.085Z,54.80
2023-02-18T14:06:31.229Z,56.50
2023-02-18T14:09:05.830Z,58.10
2023-02-18T14:11:39.473Z,60.00
2023-02-18T14:14:25.386Z,62.40
2023-02-18T14:17:20.636Z,61.70
2023-02-18T14:19:55.046Z,62.00
2023-02-18T14:22:28.513Z,61.20
2023-02-18T14:25:16.324Z,60.80
2023-02-18T14:27:44.147Z,61.70
2023-02-18T14:30:29.431Z,61.90
2023-02-18T14:32:59.838Z,62.50
2023-02-18T14:35:51.955Z,62.20
2023-02-18T14:38:48.538Z,62.70
2023-02-18T14:41:38.894Z,64.10
2023-02-18T14:44:24.569Z,65.30
2023-02-18T14:47:07.404Z,66.10
2023-02-18T14:49:45.116Z,66.60
2023-02-18T14:52:34.397Z,67.20
2023-02-18T14:55:05.346Z,68.00
2023-02-18T14:57:51.004Z,68.60
2023-02-18T15:00:24.288Z,68.60
2023-02-18T15:02:54.996Z,69.30
2023-02-18T15:05:25.011Z,69.70
2023-02-18T15:07:55.774Z,69.80
2023-02-18T15:10:26.856Z,70.00
2023-02-18T15:12:54.159Z,69.80
2023-02-18T15:15:21.892Z,69.90
2023-02-18T15:17:49.897Z,69.50
2023-02-18T15:20:17.679Z,70.00
2023-02-18T15:22:45.085Z,70.30
2023-02-18T15:25:14.819Z,71.00
2023-02-18T15:27:45.989Z,71.70
2023-02-18T15:30:29.768Z,72.20
2023-02-18T15:32:59.074Z,72.90
2023-02-18T15:35:30.940Z,73.20
2023-02-18T15:38:00.150Z,73.30
2023-02-18T15:40:33.190Z,73.50
2023-02-18T15:43:02.355Z,73.90
2023-02-18T15:45:39.545Z,74.40
2023-02-18T15:48:07.153Z,74.80
2023-02-18T15:50:38.429Z,75.10
2023-02-18T15:53:14.068Z,75.50
2023-02-18T15:55:45.972Z,75.80
2023-02-18T15:58:29.987Z,76.20
2023-02-18T16:01:02.244Z,76.80
2023-02-18T16:03:45.150Z,77.50
2023-02-18T16:06:18.530Z,77.90
2023-02-18T16:09:04.692Z,78.40
2023-02-18T16:11:36.846Z,79.00
2023-02-18T16:14:06.106Z,79.60
2023-02-18T16:16:36.517Z,80.20
2023-02-18T16:19:04.568Z,80.80
2023-02-18T16:21:38.957Z,81.20
2023-02-18T16:24:25.565Z,81.70
2023-02-18T16:26:57.814Z,82.10
2023-02-18T16:29:35.009Z,82.80
2023-02-18T16:32:02.756Z,83.10
2023-02-18T16:34:30.194Z,83.60
2023-02-18T16:37:16.348Z,84.10
2023-02-18T16:39:43.963Z,84.80
2023-02-18T16:42:15.378Z,85.30
2023-02-18T16:44:42.652Z,86.00
2023-02-18T16:47:16.567Z,86.60
2023-02-18T16:49:50.730Z,87.20
2023-02-18T16:52:19.606Z,87.70
2023-02-18T16:54:48.379Z,88.20
2023-02-18T16:57:15.563Z,88.30
2023-02-18T16:59:42.849Z,88.60
2023-02-18T17:02:19.148Z,88.80
2023-02-18T17:04:46.713Z,89.20
2023-02-18T17:07:14.027Z,89.30
2023-02-18T17:09:41.296Z,89.50
2023-02-18T17:12:10.200Z,89.60
2023-02-18T17:14:37.569Z,89.60
2023-02-18T17:17:11.182Z,89.30
2023-02-18T17:19:38.544Z,88.90
2023-02-18T17:22:05.918Z,89.20
2023-02-18T17:24:33.123Z,89.50
2023-02-18T17:27:03.164Z,89.30
2023-02-18T17:29:30.492Z,89.40
2023-02-18T17:31:58.163Z,90.00
2023-02-18T17:34:28.284Z,90.50
2023-02-18T17:36:55.605Z,90.90
2023-02-18T17:39:24.731Z,91.20
2023-02-18T17:41:52.494Z,91.30
2023-02-18T17:44:24.541Z,91.60
2023-02-18T17:46:52.524Z,91.80
2023-02-18T17:49:19.812Z,91.70
2023-02-18T17:51:47.171Z,92.00
2023-02-18T17:54:16.865Z,92.40
2023-02-18T17:56:44.776Z,92.60
2023-02-18T17:59:12.978Z,92.70
2023-02-18T18:01:40.548Z,92.70
2023-02-18T18:04:15.842Z,92.80
2023-02-18T18:06:43.821Z,92.90
2023-02-18T18:09:11.271Z,93.00
2023-02-18T18:11:39.078Z,93.10
2023-02-18T18:14:06.434Z,93.20
2023-02-18T18:16:33.952Z,93.30
2023-02-18T18:19:01.288Z,93.30
2023-02-18T18:21:36.504Z,93.30
2023-02-18T18:24:04.013Z,93.30
2023-02-18T18:26:31.500Z,93.50
2023-02-18T18:28:58.795Z,93.80
2023-02-18T18:31:26.226Z,94.10
2023-02-18T18:33:53.879Z,94.20
2023-02-18T18:36:24.455Z,94.10
2023-02-18T18:38:52.000Z,94.20
2023-02-18T18:41:22.122Z,94.20
2023-02-18T18:43:50.010Z,94.50
2023-02-18T18:46:18.204Z,94.50
2023-02-18T18:48:45.697Z,94.50
2023-02-18T18:51:20.762Z,94.70
2023-02-18T18:53:48.082Z,94.70
2023-02-18T18:56:15.331Z,94.50
2023-02-18T18:58:42.550Z,94.10
2023-02-18T19:01:23.198Z,94.40
2023-02-18T19:03:50.511Z,94.00
2023-02-18T19:06:19.990Z,94.20
2023-02-18T19:08:47.985Z,94.40
2023-02-18T19:11:17.247Z,94.40
2023-02-18T19:13:45.806Z,94.60
2023-02-18T19:16:29.715Z,94.70
2023-02-18T19:18:57.136Z,94.80
2023-02-18T19:21:24.302Z,94.80
2023-02-18T19:23:51.463Z,95.00
2023-02-18T19:26:19.137Z,95.10
2023-02-18T19:28:46.595Z,95.30
2023-02-18T19:31:14.351Z,95.20
2023-02-18T19:33:43.163Z,95.00
2023-02-18T19:36:11.873Z,95.00
2023-02-18T19:38:39.657Z,95.00
2023-02-18T19:41:13.201Z,95.00
2023-02-18T19:43:47.103Z,95.20
2023-02-18T19:46:19.095Z,95.30
2023-02-18T19:48:52.354Z,95.30
2023-02-18T19:51:21.395Z,95.60
2023-02-18T19:53:48.823Z,95.70
2023-02-18T19:56:16.258Z,96.00
2023-02-18T19:58:43.508Z,96.20
2023-02-18T20:01:15.252Z,96.30
2023-02-18T20:03:43.882Z,96.70
2023-02-18T20:06:19.024Z,96.80
2023-02-18T20:08:46.871Z,96.70
2023-02-18T20:11:14.169Z,96.70
2023-02-18T20:13:42.225Z,96.50
2023-02-18T20:16:10.529Z,96.60
2023-02-18T20:18:37.817Z,96.90
2023-02-18T20:21:05.493Z,97.00
2023-02-18T20:23:32.915Z,96.90
2023-02-18T20:26:04.113Z,97.10
2023-02-18T20:28:31.328Z,97.30
2023-02-18T20:31:11.163Z,97.30
2023-02-18T20:33:39.240Z,97.10
2023-02-18T20:36:08.508Z,97.10
2023-02-18T20:38:36.891Z,97.30
2023-02-18T20:41:05.419Z,97.20
2023-02-18T20:43:33.091Z,97.20
2023-02-18T20:46:04.987Z,97.40
2023-02-18T20:48:32.328Z,97.00
2023-02-18T20:51:08.136Z,97.10
2023-02-18T20:53:37.156Z,97.40
2023-02-18T20:56:05.587Z,97.60
2023-02-18T20:58:33.411Z,97.60
2023-02-18T21:01:03.445Z,97.60
2023-02-18T21:03:31.089Z,97.70
2023-02-18T21:06:02.118Z,97.60
2023-02-18T21:08:29.872Z,97.60
2023-02-18T21:10:57.948Z,97.60
2023-02-18T21:13:26.334Z,97.70
2023-02-18T21:15:53.663Z,97.50
2023-02-18T21:18:21.020Z,97.50
2023-02-18T21:20:48.604Z,97.70
2023-02-18T21:23:16.072Z,97.00
2023-02-18T21:25:43.303Z,97.00
2023-02-18T21:28:10.470Z,97.40
2023-02-18T21:30:43.501Z,97.50
2023-02-18T21:33:12.635Z,97.80
2023-02-18T21:35:41.106Z,98.00
2023-02-18T21:38:08.288Z,98.20
2023-02-18T21:40:36.672Z,98.40
2023-02-18T21:43:04.046Z,98.50
2023-02-18T21:45:34.424Z,98.60
2023-02-18T21:48:21.769Z,98.80
2023-02-18T21:50:50.015Z,99.00
2023-02-18T21:53:17.769Z,99.10
2023-02-18T21:55:55.285Z,99.10
2023-02-18T21:58:29.369Z,99.00
2023-02-18T22:00:58.225Z,98.80
2023-02-18T22:03:25.623Z,98.70
2023-02-18T22:05:52.848Z,98.50
2023-02-18T22:08:21.331Z,98.00
2023-02-18T22:10:48.476Z,98.00
2023-02-18T22:13:15.848Z,98.30
2023-02-18T22:15:43.713Z,98.00
2023-02-18T22:18:11.077Z,97.70
2023-02-18T22:20:38.784Z,97.60
2023-02-18T22:23:05.923Z,97.40
2023-02-18T22:25:35.213Z,97.10
2023-02-18T22:28:02.549Z,97.30
2023-02-18T22:30:30.032Z,97.80
2023-02-18T22:32:57.285Z,98.10
2023-02-18T22:35:24.540Z,98.30
2023-02-18T22:37:51.799Z,98.60
2023-02-18T22:40:19.258Z,98.90
2023-02-18T22:42:46.492Z,99.00
2023-02-18T22:45:13.958Z,98.90
2023-02-18T22:47:41.196Z,98.80
2023-02-18T22:50:08.900Z,98.60
2023-02-18T22:52:36.529Z,98.60
2023-02-18T22:55:03.770Z,98.50
2023-02-18T22:57:31.023Z,98.20
2023-02-18T22:59:58.187Z,98.20
2023-02-18T23:02:25.664Z,98.10
2023-02-18T23:04:52.922Z,98.00
2023-02-18T23:07:24.511Z,97.80
2023-02-18T23:09:51.806Z,97.90
2023-02-18T23:12:19.219Z,97.60
2023-02-18T23:14:47.791Z,97.50
2023-02-18T23:17:17.794Z,97.60
2023-02-18T23:19:51.116Z,97.60
2023-02-18T23:22:33.669Z,97.60
2023-02-18T23:25:02.018Z,97.70
2023-02-18T23:27:30.783Z,97.70
2023-02-18T23:29:58.094Z,97.80
2023-02-18T23:32:27.890Z,97.90
2023-02-18T23:34:55.125Z,98.00
2023-02-18T23:37:44.032Z,98.00
2023-02-18T23:40:13.890Z,98.10
2023-02-18T23:42:41.478Z,98.10
2023-02-18T23:45:09.053Z,98.10
2023-02-18T23:47:36.398Z,98.20
2023-02-18T23:50:04.189Z,98.20
2023-02-18T23:52:31.539Z,98.40
2023-02-18T23:54:58.934Z,98.40
2023-02-18T23:57:30.008Z,98.40
2023-02-18T23:59:57.404Z,98.40
